createdAt,value
2023-05-08T00:00:08.160Z,90.20
2023-05-08T00:02:34.960Z,90.20
2023-05-08T00:05:01.836Z,90.20
2023-05-08T00:07:28.549Z,90.20
2023-05-08T00:09:55.293Z,90.10
2023-05-08T00:12:21.913Z,90.00
2023-05-08T00:48:09.510Z,90.00
2023-05-08T00:50:36.684Z,90.10
2023-05-08T00:53:04.456Z,90.10
2023-05-08T00:55:32.710Z,89.90
2023-05-08T00:57:59.707Z,89.60
2023-05-08T01:00:26.790Z,89.70
2023-05-08T01:02:53.828Z,89.40
2023-05-08T01:05:20.649Z,89.20
2023-05-08T01:07:47.487Z,89.50
2023-05-08T01:10:14.442Z,89.80
2023-05-08T01:12:44.526Z,90.10
2023-05-08T01:15:39.753Z,90.00
2023-05-08T01:18:35.641Z,89.70
2023-05-08T01:21:14.478Z,89.00
2023-05-08T01:24:13.103Z,89.90
2023-05-08T01:26:57.988Z,90.10
2023-05-08T01:30:01.318Z,90.10
2023-05-08T01:32:34.966Z,89.70
2023-05-08T01:35:10.768Z,89.50
2023-05-08T01:37:51.719Z,90.10
2023-05-08T01:40:45.515Z,90.00
2023-05-08T01:43:39.116Z,90.10
2023-05-08T01:46:13.436Z,90.20
2023-05-08T01:48:49.285Z,90.30
2023-05-08T01:51:23.725Z,90.20
2023-05-08T01:53:58.921Z,90.20
2023-05-08T01:56:28.509Z,90.40
2023-05-08T01:58:58.888Z,90.50
2023-05-08T02:01:29.117Z,90.50
2023-05-08T02:03:57.360Z,90.40
2023-05-08T02:06:26.814Z,90.40
2023-05-08T02:08:54.680Z,90.20
2023-05-08T02:11:24.663Z,90.10
2023-05-08T02:13:52.637Z,90.20
2023-05-08T02:16:20.851Z,90.10
2023-05-08T02:18:52.663Z,90.00
2023-05-08T02:21:20.651Z,90.20
2023-05-08T02:23:48.585Z,90.30
2023-05-08T02:26:16.410Z,90.30
2023-05-08T02:28:43.330Z,90.20
2023-05-08T02:31:12.037Z,90.00
2023-05-08T02:33:41.690Z,90.10
2023-05-08T02:36:10.836Z,90.20
2023-05-08T02:38:39.671Z,90.20
2023-05-08T02:41:07.960Z,90.20
2023-05-08T02:43:35.273Z,90.30
2023-05-08T02:46:14.558Z,90.30
2023-05-08T02:48:47.151Z,90.20
2023-05-08T02:51:37.624Z,90.30
2023-05-08T02:54:11.761Z,90.10
2023-05-08T02:57:01.642Z,90.00
2023-05-08T02:59:45.590Z,89.80
2023-05-08T03:02:35.444Z,89.80
2023-05-08T03:05:32.671Z,89.90
2023-05-08T03:08:08.017Z,90.00
2023-05-08T03:10:36.520Z,90.00
2023-05-08T03:13:05.786Z,89.70
2023-05-08T03:15:36.232Z,89.70
2023-05-08T03:18:07.386Z,89.70
2023-05-08T03:20:37.902Z,90.00
2023-05-08T03:23:06.572Z,90.10
2023-05-08T03:25:35.483Z,90.20
2023-05-08T03:28:04.989Z,90.20
2023-05-08T03:30:36.419Z,90.20
2023-05-08T03:33:05.252Z,90.20
2023-05-08T03:35:39.328Z,90.00
2023-05-08T03:38:06.732Z,90.00
2023-05-08T03:40:42.592Z,90.10
2023-05-08T03:43:10.190Z,90.30
2023-05-08T03:45:41.407Z,90.30
2023-05-08T03:48:09.288Z,90.30
2023-05-08T03:50:38.267Z,90.20
2023-05-08T03:53:05.464Z,90.40
2023-05-08T03:55:32.696Z,90.40
2023-05-08T03:58:35.537Z,90.30
2023-05-08T04:01:21.813Z,90.30
2023-05-08T04:04:22.063Z,90.60
2023-05-08T04:07:15.700Z,90.70
2023-05-08T04:10:03.242Z,90.90
2023-05-08T04:12:45.211Z,91.00
2023-05-08T04:15:20.553Z,91.00
2023-05-08T04:18:13.121Z,90.80
2023-05-08T04:20:41.844Z,90.70
2023-05-08T04:23:10.928Z,90.70
2023-05-08T04:25:39.757Z,90.70
2023-05-08T04:28:06.455Z,91.00
2023-05-08T04:30:33.750Z,91.00
2023-05-08T04:33:04.209Z,90.90
2023-05-08T04:35:31.328Z,90.90
2023-05-08T04:37:59.460Z,91.10
2023-05-08T04:40:26.477Z,90.90
2023-05-08T04:42:53.170Z,90.90
2023-05-08T04:45:20.156Z,90.90
2023-05-08T04:47:46.896Z,90.80
2023-05-08T04:50:13.642Z,90.80
2023-05-08T04:52:40.218Z,90.90
2023-05-08T04:55:07.540Z,91.00
2023-05-08T04:57:34.204Z,91.40
2023-05-08T05:00:00.973Z,90.90
2023-05-08T05:02:27.625Z,90.90
2023-05-08T05:04:54.222Z,90.80
2023-05-08T05:07:20.886Z,91.00
2023-05-08T05:09:47.539Z,91.00
2023-05-08T05:12:14.393Z,90.90
2023-05-08T05:14:41.070Z,91.00
2023-05-08T05:17:08.310Z,91.10
2023-05-08T05:19:35.004Z,91.10
2023-05-08T05:22:01.894Z,91.00
2023-05-08T05:24:28.586Z,91.00
2023-05-08T05:26:55.263Z,90.60
2023-05-08T05:29:21.852Z,90.70
2023-05-08T05:31:48.544Z,90.80
2023-05-08T05:34:15.467Z,90.80
2023-05-08T05:36:42.133Z,91.00
2023-05-08T05:39:08.794Z,91.10
2023-05-08T05:41:36.243Z,91.00
2023-05-08T05:44:03.126Z,91.00
2023-05-08T05:46:32.634Z,91.30
2023-05-08T05:48:59.561Z,91.40
2023-05-08T05:51:27.629Z,91.50
2023-05-08T05:53:54.320Z,91.50
2023-05-08T05:56:21.761Z,91.50
2023-05-08T05:58:48.560Z,91.50
2023-05-08T06:01:15.333Z,91.60
2023-05-08T06:03:42.069Z,91.60
2023-05-08T06:06:08.896Z,91.60
2023-05-08T06:08:35.507Z,91.40
2023-05-08T06:11:02.284Z,91.40
2023-05-08T06:13:28.932Z,91.50
2023-05-08T06:15:56.572Z,91.70
2023-05-08T06:18:23.614Z,91.60
2023-05-08T06:20:56.718Z,91.90
2023-05-08T06:23:23.539Z,92.30
2023-05-08T06:25:50.214Z,92.10
2023-05-08T06:28:16.920Z,92.40
2023-05-08T06:30:43.590Z,92.00
2023-05-08T06:33:11.163Z,92.20
2023-05-08T06:35:37.818Z,92.60
2023-05-08T06:38:04.502Z,92.40
2023-05-08T06:40:31.349Z,92.30
2023-05-08T06:42:57.970Z,92.30
2023-05-08T06:45:24.573Z,92.40
2023-05-08T06:47:51.339Z,92.30
2023-05-08T06:50:18.023Z,92.30
2023-05-08T06:52:44.624Z,92.40
2023-05-08T06:55:11.631Z,92.60
2023-05-08T06:57:38.425Z,92.50
2023-05-08T07:00:06.137Z,92.60
2023-05-08T07:02:32.821Z,92.50
2023-05-08T07:04:59.622Z,92.40
2023-05-08T07:07:26.372Z,92.50
2023-05-08T07:09:53.022Z,92.70
2023-05-08T07:12:19.678Z,92.70
2023-05-08T07:14:46.380Z,92.60
2023-05-08T07:17:13.025Z,92.30
2023-05-08T07:19:39.700Z,93.00
2023-05-08T07:22:06.671Z,92.90
2023-05-08T07:24:33.664Z,92.70
2023-05-08T07:27:00.685Z,92.90
2023-05-08T07:29:27.503Z,92.90
2023-05-08T07:31:54.228Z,92.90
2023-05-08T07:34:21.263Z,93.10
2023-05-08T07:36:48.072Z,92.60
2023-05-08T07:39:14.802Z,92.40
2023-05-08T07:41:41.923Z,92.90
2023-05-08T07:44:08.749Z,92.60
2023-05-08T07:46:35.515Z,92.60
2023-05-08T07:49:02.325Z,92.90
2023-05-08T07:51:30.048Z,92.50
2023-05-08T07:53:56.736Z,92.40
2023-05-08T07:56:23.507Z,92.10
2023-05-08T07:58:50.254Z,92.10
2023-05-08T08:01:18.190Z,92.00
2023-05-08T08:03:48.261Z,92.30
2023-05-08T08:06:14.953Z,92.00
2023-05-08T08:08:41.645Z,92.00
2023-05-08T08:11:08.548Z,92.30
2023-05-08T08:13:35.233Z,92.40
2023-05-08T08:16:04.122Z,92.20
2023-05-08T08:18:33.788Z,92.10
2023-05-08T08:21:00.369Z,92.10
2023-05-08T08:23:27.369Z,91.90
2023-05-08T08:25:54.380Z,92.10
2023-05-08T08:28:21.100Z,92.20
2023-05-08T08:30:47.795Z,91.90
2023-05-08T08:33:15.841Z,91.50
2023-05-08T08:35:44.158Z,91.70
2023-05-08T08:38:10.769Z,91.90
2023-05-08T08:40:41.315Z,91.90
2023-05-08T08:43:08.911Z,91.40
2023-05-08T08:45:37.138Z,91.40
2023-05-08T08:48:04.755Z,91.60
2023-05-08T08:50:35.826Z,91.30
2023-05-08T08:53:25.796Z,91.40
2023-05-08T08:55:55.937Z,90.90
2023-05-08T08:58:59.452Z,91.10
2023-05-08T09:01:29.312Z,90.90
2023-05-08T09:03:59.762Z,91.00
2023-05-08T09:06:27.635Z,90.90
2023-05-08T09:08:56.925Z,91.00
2023-05-08T09:11:24.502Z,91.30
2023-05-08T09:13:51.588Z,90.70
2023-05-08T09:16:18.641Z,90.70
2023-05-08T09:18:45.309Z,90.50
2023-05-08T09:21:12.557Z,90.30
2023-05-08T09:23:58.867Z,90.50
2023-05-08T09:26:33.845Z,90.40
2023-05-08T09:29:22.047Z,90.10
2023-05-08T09:31:50.826Z,89.70
2023-05-08T09:34:33.159Z,90.20
2023-05-08T09:37:05.918Z,88.90
2023-05-08T09:39:32.653Z,88.90
2023-05-08T09:42:04.272Z,89.10
2023-05-08T09:44:49.609Z,89.10
2023-05-08T09:47:24.237Z,88.20
2023-05-08T09:50:01.105Z,87.80
2023-05-08T09:52:29.285Z,87.60
2023-05-08T09:55:09.833Z,87.70
2023-05-08T09:57:39.183Z,87.00
2023-05-08T10:00:10.201Z,87.30
2023-05-08T10:02:38.431Z,87.10
2023-05-08T10:05:22.042Z,84.50
2023-05-08T10:07:48.739Z,86.40
2023-05-08T10:10:26.873Z,86.10
2023-05-08T10:12:58.358Z,85.20
2023-05-08T10:15:28.538Z,85.60
2023-05-08T10:18:01.103Z,85.40
2023-05-08T10:20:30.261Z,85.50
2023-05-08T10:22:57.987Z,85.20
2023-05-08T10:25:25.959Z,84.80
2023-05-08T10:27:58.307Z,84.20
2023-05-08T10:30:26.048Z,84.50
2023-05-08T10:32:58.300Z,83.50
2023-05-08T10:35:25.851Z,84.30
2023-05-08T10:37:53.754Z,84.20
2023-05-08T10:40:21.353Z,84.10
2023-05-08T10:42:49.025Z,84.10
2023-05-08T10:45:15.836Z,84.10
2023-05-08T10:47:53.144Z,84.60
2023-05-08T10:50:31.144Z,84.30
2023-05-08T10:53:17.048Z,84.10
2023-05-08T10:55:49.981Z,82.60
2023-05-08T10:58:32.812Z,83.80
2023-05-08T11:01:07.865Z,82.50
2023-05-08T11:03:50.648Z,82.70
2023-05-08T11:06:48.827Z,81.80
2023-05-08T11:09:30.296Z,82.10
2023-05-08T11:12:07.490Z,82.50
2023-05-08T11:14:36.441Z,82.70
2023-05-08T11:17:04.443Z,81.70
2023-05-08T11:19:31.389Z,82.10
2023-05-08T11:22:15.151Z,81.80
2023-05-08T11:24:55.743Z,81.60
2023-05-08T11:27:51.544Z,81.90
2023-05-08T11:30:32.964Z,81.50
2023-05-08T11:33:06.213Z,81.50
2023-05-08T11:35:57.081Z,81.00
2023-05-08T11:38:28.062Z,79.70
2023-05-08T11:41:03.575Z,79.90
2023-05-08T11:43:33.253Z,80.10
2023-05-08T11:46:05.666Z,80.30
2023-05-08T11:48:32.848Z,80.80
2023-05-08T11:51:00.391Z,80.40
2023-05-08T11:53:27.799Z,77.70
2023-05-08T11:55:54.983Z,78.70
2023-05-08T11:58:21.966Z,77.90
2023-05-08T12:00:49.450Z,77.80
2023-05-08T12:03:19.080Z,77.70
2023-05-08T12:05:46.460Z,76.90
2023-05-08T12:08:14.565Z,75.10
2023-05-08T12:10:53.066Z,74.50
2023-05-08T12:13:23.801Z,74.60
2023-05-08T12:15:53.539Z,75.30
2023-05-08T12:18:21.700Z,75.90
2023-05-08T12:20:53.325Z,75.30
2023-05-08T12:23:20.416Z,72.80
2023-05-08T12:25:47.087Z,75.20
2023-05-08T12:28:13.861Z,74.60
2023-05-08T12:30:41.001Z,76.10
2023-05-08T12:33:08.266Z,73.90
2023-05-08T12:35:34.973Z,72.50
2023-05-08T12:38:07.871Z,72.40
2023-05-08T12:40:36.155Z,72.80
2023-05-08T12:43:03.928Z,72.50
2023-05-08T12:45:34.074Z,73.30
2023-05-08T12:48:06.441Z,73.10
2023-05-08T12:50:38.702Z,73.50
2023-05-08T12:53:18.708Z,72.00
2023-05-08T12:55:56.883Z,71.40
2023-05-08T12:58:41.527Z,69.50
2023-05-08T13:01:13.388Z,69.00
2023-05-08T13:03:41.315Z,68.30
2023-05-08T13:06:19.685Z,69.20
2023-05-08T13:08:52.295Z,68.90
2023-05-08T13:11:30.577Z,69.80
2023-05-08T13:13:57.252Z,70.20
2023-05-08T13:16:23.947Z,67.40
2023-05-08T13:18:50.648Z,66.20
2023-05-08T13:21:17.390Z,66.70
2023-05-08T13:23:44.103Z,66.50
2023-05-08T13:26:10.711Z,66.60
2023-05-08T13:28:37.317Z,66.20
2023-05-08T13:31:03.942Z,66.10
2023-05-08T13:33:30.538Z,65.60
2023-05-08T13:35:57.203Z,66.40
2023-05-08T13:38:23.858Z,66.60
2023-05-08T13:40:50.673Z,66.30
2023-05-08T13:43:17.456Z,66.20
2023-05-08T13:45:44.148Z,66.00
2023-05-08T13:48:10.871Z,66.00
2023-05-08T13:50:37.599Z,66.60
2023-05-08T13:53:04.772Z,65.60
2023-05-08T13:55:31.894Z,65.40
2023-05-08T13:57:58.911Z,65.60
2023-05-08T14:00:27.931Z,65.50
2023-05-08T14:02:55.137Z,65.90
2023-05-08T14:05:22.082Z,66.00
2023-05-08T14:07:48.808Z,66.00
2023-05-08T14:10:17.113Z,66.40
2023-05-08T14:12:43.928Z,66.70
2023-05-08T14:15:11.782Z,66.80
2023-05-08T14:17:38.766Z,67.10
2023-05-08T14:20:06.607Z,67.80
2023-05-08T14:22:33.237Z,67.20
2023-05-08T14:24:59.984Z,67.20
2023-05-08T14:27:26.680Z,67.30
2023-05-08T14:29:54.139Z,67.30
2023-05-08T14:32:21.014Z,67.80
2023-05-08T14:34:47.761Z,67.90
2023-05-08T14:37:14.445Z,67.60
2023-05-08T14:39:41.022Z,67.40
2023-05-08T14:44:37.484Z,67.10
2023-05-08T14:47:04.200Z,66.70
2023-05-08T14:49:38.149Z,66.60
2023-05-08T14:52:06.432Z,66.30
2023-05-08T14:54:33.721Z,66.20
2023-05-08T14:57:00.613Z,66.50
2023-05-08T14:59:27.225Z,66.10
2023-05-08T15:01:54.113Z,66.20
2023-05-08T15:04:20.981Z,65.30
2023-05-08T15:06:47.902Z,65.90
2023-05-08T15:09:16.448Z,65.80
2023-05-08T15:11:43.348Z,66.40
2023-05-08T15:14:09.967Z,66.10
2023-05-08T15:16:36.833Z,66.50
2023-05-08T15:19:03.659Z,66.70
2023-05-08T15:21:31.027Z,66.80
2023-05-08T15:23:57.770Z,66.90
2023-05-08T15:26:24.391Z,67.60
2023-05-08T15:28:51.050Z,67.10
2023-05-08T15:31:18.612Z,67.20
2023-05-08T15:33:45.766Z,67.20
2023-05-08T15:36:15.845Z,67.30
2023-05-08T15:38:43.045Z,67.30
2023-05-08T15:41:14.714Z,67.50
2023-05-08T15:43:42.341Z,67.70
2023-05-08T15:46:09.160Z,67.30
2023-05-08T15:48:36.170Z,67.30
2023-05-08T15:51:02.814Z,67.50
2023-05-08T15:53:29.504Z,67.40
2023-05-08T15:55:57.010Z,67.90
2023-05-08T15:58:24.013Z,68.30
2023-05-08T16:00:50.748Z,68.50
2023-05-08T16:03:17.739Z,68.50
2023-05-08T16:05:44.665Z,68.40
2023-05-08T16:08:12.859Z,68.40
2023-05-08T16:10:40.615Z,68.90
2023-05-08T16:13:07.942Z,68.70
2023-05-08T16:15:34.727Z,68.90
2023-05-08T16:18:01.465Z,69.00
2023-05-08T16:20:28.203Z,69.00
2023-05-08T16:22:55.895Z,69.30
2023-05-08T16:25:22.930Z,69.50
2023-05-08T16:27:49.740Z,69.70
2023-05-08T16:30:17.102Z,69.60
2023-05-08T16:32:47.239Z,69.70
2023-05-08T16:35:14.856Z,69.90
2023-05-08T16:37:41.933Z,69.80
2023-05-08T16:40:09.580Z,69.90
2023-05-08T16:42:36.947Z,69.20
2023-05-08T16:45:04.958Z,69.00
2023-05-08T16:47:31.955Z,68.70
2023-05-08T16:49:58.720Z,68.70
2023-05-08T16:52:25.873Z,68.50
2023-05-08T16:54:53.003Z,69.20
2023-05-08T16:57:19.709Z,69.20
2023-05-08T16:59:46.345Z,69.30
2023-05-08T17:02:18.369Z,69.30
2023-05-08T17:04:49.003Z,69.30
2023-05-08T17:07:16.124Z,68.70
2023-05-08T17:09:43.419Z,69.10
2023-05-08T17:12:10.446Z,69.50
2023-05-08T17:14:39.383Z,69.50
2023-05-08T17:17:06.966Z,69.70
2023-05-08T17:19:33.737Z,69.70
2023-05-08T17:22:00.469Z,70.00
2023-05-08T17:24:27.478Z,70.00
2023-05-08T17:26:54.172Z,69.90
2023-05-08T17:29:20.887Z,70.00
2023-05-08T17:31:47.633Z,70.10
2023-05-08T17:34:14.370Z,70.20
2023-05-08T17:36:41.053Z,71.30
2023-05-08T17:39:07.782Z,70.60
2023-05-08T17:41:34.457Z,70.70
2023-05-08T17:44:01.140Z,71.00
2023-05-08T17:46:27.743Z,70.90
2023-05-08T17:48:54.396Z,70.90
2023-05-08T17:51:21.097Z,70.70
2023-05-08T17:53:47.805Z,70.80
2023-05-08T17:56:16.311Z,70.80
2023-05-08T17:58:43.520Z,71.40
2023-05-08T18:01:10.206Z,71.50
2023-05-08T18:03:36.939Z,71.50
2023-05-08T18:06:03.697Z,71.50
2023-05-08T18:08:30.445Z,71.40
2023-05-08T18:10:57.061Z,71.40
2023-05-08T18:13:23.737Z,71.30
2023-05-08T18:15:50.616Z,71.50
2023-05-08T18:18:17.326Z,71.60
2023-05-08T18:20:43.953Z,71.60
2023-05-08T18:23:10.693Z,72.40
2023-05-08T18:25:37.297Z,71.80
2023-05-08T18:28:04.017Z,71.80
2023-05-08T18:30:31.460Z,72.00
2023-05-08T18:32:58.212Z,72.20
2023-05-08T18:35:24.939Z,72.30
2023-05-08T18:37:51.673Z,72.40
2023-05-08T18:40:18.417Z,72.60
2023-05-08T18:42:45.072Z,72.70
2023-05-08T18:45:12.023Z,72.70
2023-05-08T18:47:38.729Z,72.80
2023-05-08T18:50:05.865Z,72.90
2023-05-08T18:52:32.582Z,73.00
2023-05-08T18:54:59.287Z,73.20
2023-05-08T18:57:25.950Z,73.40
2023-05-08T18:59:52.875Z,74.60
2023-05-08T19:02:19.568Z,73.60
2023-05-08T19:04:46.412Z,73.90
2023-05-08T19:07:13.004Z,74.10
2023-05-08T19:09:39.590Z,74.40
2023-05-08T19:12:06.275Z,74.50
2023-05-08T19:14:32.884Z,74.70
2023-05-08T19:16:59.605Z,74.90
2023-05-08T19:19:26.296Z,75.10
2023-05-08T19:21:53.000Z,75.30
2023-05-08T19:24:20.855Z,75.60
2023-05-08T19:26:47.709Z,75.80
2023-05-08T19:29:14.306Z,75.90
2023-05-08T19:31:41.209Z,76.10
2023-05-08T19:34:08.049Z,76.20
2023-05-08T19:36:37.485Z,76.70
2023-05-08T19:39:04.453Z,76.80
2023-05-08T19:41:31.159Z,76.80
2023-05-08T19:43:57.853Z,77.00
2023-05-08T19:46:24.787Z,77.50
2023-05-08T19:48:51.627Z,77.70
2023-05-08T19:51:18.328Z,77.60
2023-05-08T19:53:44.960Z,77.60
2023-05-08T19:56:11.599Z,77.90
2023-05-08T19:58:38.252Z,77.90
2023-05-08T20:01:04.997Z,78.10
2023-05-08T20:03:31.919Z,78.30
2023-05-08T20:05:58.623Z,78.40
2023-05-08T20:08:25.392Z,78.50
2023-05-08T20:10:52.242Z,78.40
2023-05-08T20:13:18.990Z,79.40
2023-05-08T20:15:45.893Z,78.40
2023-05-08T20:18:12.626Z,78.80
2023-05-08T20:20:39.281Z,79.80
2023-05-08T20:23:05.939Z,78.80
2023-05-08T20:25:32.620Z,78.80
2023-05-08T20:27:59.267Z,79.00
2023-05-08T20:30:25.947Z,79.20
2023-05-08T20:32:52.779Z,79.30
2023-05-08T20:35:19.623Z,79.40
2023-05-08T20:37:47.897Z,79.60
2023-05-08T20:40:15.514Z,79.40
2023-05-08T20:42:42.541Z,79.50
2023-05-08T20:45:09.945Z,79.60
2023-05-08T20:47:36.766Z,79.50
2023-05-08T20:50:04.176Z,79.40
2023-05-08T20:52:35.322Z,79.40
2023-05-08T20:55:04.464Z,79.40
2023-05-08T20:57:31.118Z,79.20
2023-05-08T20:59:57.748Z,79.10
2023-05-08T21:02:24.578Z,79.30
2023-05-08T21:04:52.659Z,79.40
2023-05-08T21:07:19.433Z,79.50
2023-05-08T21:09:46.160Z,79.60
2023-05-08T21:12:12.828Z,79.70
2023-05-08T21:14:39.537Z,79.60
2023-05-08T21:17:06.220Z,79.40
2023-05-08T21:19:32.866Z,79.60
2023-05-08T21:21:59.547Z,79.70
2023-05-08T21:24:26.276Z,79.80
2023-05-08T21:26:53.436Z,79.90
2023-05-08T21:29:20.242Z,80.00
2023-05-08T21:31:46.926Z,79.90
2023-05-08T21:34:14.815Z,80.20
2023-05-08T21:36:41.613Z,80.20
2023-05-08T21:39:08.788Z,80.20
2023-05-08T21:41:35.393Z,80.30
2023-05-08T21:44:02.084Z,80.50
2023-05-08T21:46:28.765Z,80.40
2023-05-08T21:48:55.461Z,80.60
2023-05-08T21:51:22.109Z,80.40
2023-05-08T21:53:48.887Z,80.80
2023-05-08T21:56:16.521Z,80.90
2023-05-08T21:58:43.214Z,81.00
2023-05-08T22:01:09.935Z,81.10
2023-05-08T22:03:36.968Z,81.10
2023-05-08T22:06:03.969Z,81.20
2023-05-08T22:08:30.696Z,81.30
2023-05-08T22:10:57.642Z,81.40
2023-05-08T22:13:24.354Z,81.30
2023-05-08T22:15:51.103Z,81.50
2023-05-08T22:18:18.002Z,81.50
2023-05-08T22:20:44.703Z,81.80
2023-05-08T22:23:11.361Z,81.90
2023-05-08T22:25:38.114Z,82.10
2023-05-08T22:28:04.836Z,82.00
2023-05-08T22:30:31.462Z,82.10
2023-05-08T22:32:59.435Z,82.20
2023-05-08T22:35:27.603Z,82.10
2023-05-08T22:37:55.533Z,82.20
2023-05-08T22:40:22.908Z,82.30
2023-05-08T22:42:51.558Z,82.60
2023-05-08T22:45:18.666Z,82.60
2023-05-08T22:47:45.900Z,83.00
2023-05-08T22:50:12.616Z,83.10
2023-05-08T22:52:39.602Z,83.20
2023-05-08T22:55:07.115Z,83.20
2023-05-08T22:57:33.919Z,83.20
2023-05-08T23:00:00.715Z,83.30
2023-05-08T23:02:34.740Z,83.30
2023-05-08T23:05:02.235Z,83.50
2023-05-08T23:07:29.172Z,83.40
2023-05-08T23:09:55.919Z,83.60
2023-05-08T23:12:22.599Z,83.60
2023-05-08T23:14:49.240Z,83.50
2023-05-08T23:17:15.954Z,83.70
2023-05-08T23:19:42.727Z,84.00
2023-05-08T23:22:09.698Z,84.10
2023-05-08T23:24:36.885Z,84.20
2023-05-08T23:27:03.661Z,84.20
2023-05-08T23:29:30.319Z,84.50
2023-05-08T23:31:56.926Z,84.40
2023-05-08T23:34:23.584Z,84.50
2023-05-08T23:36:50.420Z,84.40
2023-05-08T23:39:17.184Z,84.50
2023-05-08T23:41:43.853Z,84.50
2023-05-08T23:44:10.476Z,84.80
2023-05-08T23:46:37.115Z,85.00
2023-05-08T23:49:05.451Z,84.90
2023-05-08T23:51:32.662Z,84.70
2023-05-08T23:53:59.257Z,84.90
2023-05-08T23:56:26.935Z,85.00
2023-05-08T23:58:53.622Z,85.30
